Agadir Al Massira, Morocco
Current Conditions -  °F | °C
As of 12:00 AM on Thursday 27 Nov 2014 (Local Time) from GMAD Reporting Station
Scattered Clouds Scattered Clouds  
Wind Chill: 16°   Ceiling: Unl
Heat Index: 16°   Visibility: 6mi
Dew Point: 14°   Wind: 3mph
Humidity: 88%   Direction: 140°SE
Pressure: 29.91"   Gusts: NA
Location:  30.33°N, 9.4°W
Report Text: GMAD 262300Z 14003KT 100V160 9999 SCT020 16/14 Q1013 NOSIG
Loading
Personal Weather Stations






























Interactive Weather Map New forecast layout! Learn more

10-Day Weather Forecast

Advertisements
Track Severe Weather on mobile